createdAt,value
2022-10-29T00:00:12.552Z,100936.03
2022-10-29T00:01:14.905Z,100927.72
2022-10-29T00:02:17.264Z,100940.78
2022-10-29T00:03:20.676Z,100938.00
2022-10-29T00:04:22.952Z,100938.81
2022-10-29T00:05:25.145Z,100932.44
2022-10-29T00:06:28.462Z,100932.44
2022-10-29T00:07:30.657Z,100930.75
2022-10-29T00:08:35.099Z,100943.56
2022-10-29T00:09:37.315Z,100938.00
2022-10-29T00:10:39.483Z,100945.22
2022-10-29T00:11:41.677Z,100948.25
2022-10-29T00:12:43.884Z,100944.38
2022-10-29T00:13:47.306Z,100948.00
2022-10-29T00:14:49.515Z,100944.38
2022-10-29T00:15:51.707Z,100938.81
2022-10-29T00:16:54.058Z,100940.78
2022-10-29T00:17:56.582Z,100942.69
2022-10-29T00:18:59.039Z,100940.78
2022-10-29T00:20:01.237Z,100942.69
2022-10-29T00:21:06.054Z,100943.56
2022-10-29T00:22:08.299Z,100945.47
2022-10-29T00:23:10.500Z,100940.78
2022-10-29T00:24:12.750Z,100948.00
2022-10-29T00:25:15.003Z,100943.56
2022-10-29T00:26:19.517Z,100943.56
2022-10-29T00:27:21.703Z,100942.44
2022-10-29T00:28:24.747Z,100943.56
2022-10-29T00:29:26.909Z,100945.22
2022-10-29T00:30:29.116Z,100949.09
2022-10-29T00:31:31.512Z,100943.56
2022-10-29T00:32:33.774Z,100942.44
2022-10-29T00:33:35.956Z,100951.03
2022-10-29T00:34:38.477Z,100953.81
2022-10-29T00:35:40.810Z,100942.69
2022-10-29T00:36:45.247Z,100945.47
2022-10-29T00:37:47.403Z,100940.78
2022-10-29T00:38:50.394Z,100942.69
2022-10-29T00:39:52.603Z,100946.59
2022-10-29T00:40:55.296Z,100942.16
2022-10-29T00:41:57.513Z,100942.97
2022-10-29T00:43:17.118Z,100944.91
2022-10-29T00:44:20.526Z,100946.84
2022-10-29T00:45:22.841Z,100946.84
2022-10-29T00:46:33.839Z,100945.75
2022-10-29T00:47:37.187Z,100951.56
2022-10-29T00:48:59.154Z,100951.56
2022-10-29T00:50:06.631Z,100944.34
2022-10-29T00:51:10.898Z,100949.06
2022-10-29T00:52:15.259Z,100939.34
2022-10-29T00:53:23.927Z,100943.78
2022-10-29T00:54:28.554Z,100940.16
2022-10-29T00:55:31.859Z,100939.63
2022-10-29T00:56:38.222Z,100932.38
2022-10-29T00:57:47.215Z,100930.44
2022-10-29T00:58:49.646Z,100934.31
2022-10-29T00:59:53.052Z,100928.75
2022-10-29T01:00:55.599Z,100929.03
2022-10-29T01:01:57.890Z,100933.75
2022-10-29T01:03:00.432Z,100943.75
2022-10-29T01:04:04.227Z,100937.34
2022-10-29T01:05:09.259Z,100944.00
2022-10-29T01:06:11.555Z,100937.34
2022-10-29T01:07:13.848Z,100938.44
2022-10-29T01:08:16.694Z,100938.44
2022-10-29T01:09:18.888Z,100936.81
2022-10-29T01:10:31.964Z,100952.34
2022-10-29T01:12:06.106Z,100939.00
2022-10-29T01:13:33.321Z,100932.34
2022-10-29T01:15:00.587Z,100932.63
2022-10-29T01:16:11.957Z,100931.75
2022-10-29T01:17:32.987Z,100930.13
2022-10-29T01:18:54.996Z,100925.38
2022-10-29T01:20:15.876Z,100928.16
2022-10-29T01:21:24.190Z,100932.91
2022-10-29T01:22:32.360Z,100936.78
2022-10-29T01:24:08.793Z,100942.31
2022-10-29T01:25:56.037Z,100941.75
2022-10-29T01:27:29.274Z,100933.69
2022-10-29T01:28:36.838Z,100936.19
2022-10-29T01:30:00.517Z,100935.63
2022-10-29T01:31:36.755Z,100927.31
2022-10-29T01:32:57.948Z,100932.00
2022-10-29T01:34:20.319Z,100929.22
2022-10-29T01:35:37.935Z,100935.06
2022-10-29T01:36:57.789Z,100934.19
2022-10-29T01:38:21.214Z,100934.19
2022-10-29T01:39:41.482Z,100938.91
2022-10-29T01:40:55.487Z,100937.22
2022-10-29T01:42:12.885Z,100929.16
2022-10-29T01:43:20.979Z,100936.66
2022-10-29T01:44:47.305Z,100936.41
2022-10-29T01:46:04.106Z,100939.44
2022-10-29T01:47:14.255Z,100940.53
2022-10-29T01:48:22.533Z,100949.69
2022-10-29T01:49:34.928Z,100943.91
2022-10-29T01:50:40.081Z,100948.59
2022-10-29T01:51:44.391Z,100951.38
2022-10-29T01:52:49.100Z,100956.09
2022-10-29T01:53:52.359Z,100949.69
2022-10-29T01:54:54.733Z,100946.69
2022-10-29T01:55:56.940Z,100950.56
2022-10-29T01:57:00.670Z,100944.16
2022-10-29T01:58:05.208Z,100955.00
2022-10-29T01:59:18.479Z,100943.91
2022-10-29T02:00:47.280Z,100943.03
2022-10-29T02:01:52.214Z,100951.38
2022-10-29T02:03:06.138Z,100938.34
2022-10-29T02:04:19.863Z,100933.63
2022-10-29T02:05:29.385Z,100940.28
2022-10-29T02:06:59.925Z,100948.31
2022-10-29T02:08:27.071Z,100939.16
2022-10-29T02:09:39.493Z,100944.44
2022-10-29T02:11:23.545Z,100947.22
2022-10-29T02:12:30.498Z,100943.63
2022-10-29T02:13:38.000Z,100945.31
2022-10-29T02:14:48.030Z,100944.44
2022-10-29T02:15:53.997Z,100947.22
2022-10-29T02:16:56.778Z,100937.84
2022-10-29T02:18:01.572Z,100941.69
2022-10-29T02:19:06.254Z,100941.69
2022-10-29T02:20:15.370Z,100941.69
2022-10-29T02:21:19.304Z,100936.13
2022-10-29T02:22:21.547Z,100935.06
2022-10-29T02:23:25.087Z,100937.84
2022-10-29T02:24:30.443Z,100929.50
2022-10-29T02:25:32.740Z,100933.34
2022-10-29T02:26:36.477Z,100931.19
2022-10-29T02:27:39.071Z,100929.50
2022-10-29T02:28:41.296Z,100926.72
2022-10-29T02:29:43.486Z,100926.72
2022-10-29T02:30:45.684Z,100924.78
2022-10-29T02:31:47.951Z,100932.00
2022-10-29T02:32:50.283Z,100923.69
2022-10-29T02:33:52.455Z,100930.31
2022-10-29T02:34:54.669Z,100933.09
2022-10-29T02:35:56.870Z,100929.50
2022-10-29T02:36:59.097Z,100930.56
2022-10-29T02:38:01.631Z,100930.31
2022-10-29T02:39:04.072Z,100934.19
2022-10-29T02:40:06.972Z,100934.19
2022-10-29T02:41:09.185Z,100939.75
2022-10-29T02:42:11.423Z,100946.16
2022-10-29T02:43:14.112Z,100936.75
2022-10-29T02:44:16.306Z,100932.28
2022-10-29T02:45:19.044Z,100946.16
2022-10-29T02:46:23.141Z,100947.84
2022-10-29T02:47:25.347Z,100947.84
2022-10-29T02:48:27.571Z,100945.06
2022-10-29T02:49:29.836Z,100953.41
2022-10-29T02:50:32.064Z,100941.44
2022-10-29T02:51:34.480Z,100947.84
2022-10-29T02:52:36.724Z,100952.53
2022-10-29T02:53:39.040Z,100942.28
2022-10-29T02:54:41.331Z,100945.06
2022-10-29T02:55:43.499Z,100946.97
2022-10-29T02:56:48.013Z,100946.97
2022-10-29T02:57:50.213Z,100948.94
2022-10-29T02:58:52.354Z,100946.97
2022-10-29T02:59:54.583Z,100951.72
2022-10-29T03:00:56.843Z,100948.09
2022-10-29T03:01:59.117Z,100946.16
2022-10-29T03:03:01.648Z,100945.06
2022-10-29T03:04:04.014Z,100955.06
2022-10-29T03:05:06.843Z,100954.72
2022-10-29T03:06:17.434Z,100952.53
2022-10-29T03:07:19.621Z,100955.31
2022-10-29T03:08:22.119Z,100954.50
2022-10-29T03:09:24.380Z,100951.72
2022-10-29T03:10:26.604Z,100950.84
2022-10-29T03:11:28.832Z,100951.97
2022-10-29T03:12:31.364Z,100954.72
2022-10-29T03:13:33.665Z,100956.66
2022-10-29T03:14:36.128Z,100959.44
2022-10-29T03:15:38.955Z,100965.84
2022-10-29T03:16:41.162Z,100959.44
2022-10-29T03:17:43.354Z,100964.16
2022-10-29T03:18:45.545Z,100970.81
2022-10-29T03:19:47.766Z,100962.47
2022-10-29T03:20:50.015Z,100963.34
2022-10-29T03:21:52.251Z,100965.25
2022-10-29T03:22:54.503Z,100963.34
2022-10-29T03:23:56.731Z,100968.88
2022-10-29T03:24:58.979Z,100970.81
2022-10-29T03:26:02.568Z,100966.34
2022-10-29T03:27:05.765Z,100966.34
2022-10-29T03:28:08.159Z,100960.81
2022-10-29T03:29:10.453Z,100971.09
2022-10-29T03:30:14.931Z,100977.47
2022-10-29T03:31:17.284Z,100977.47
2022-10-29T03:32:21.965Z,100972.19
2022-10-29T03:33:26.753Z,100971.91
2022-10-29T03:34:28.962Z,100971.34
2022-10-29T03:35:31.167Z,100971.34
2022-10-29T03:36:33.497Z,100971.34
2022-10-29T03:37:35.728Z,100964.13
2022-10-29T03:38:37.996Z,100966.06
2022-10-29T03:39:40.192Z,100970.50
2022-10-29T03:40:42.913Z,100967.16
2022-10-29T03:41:45.137Z,100975.78
2022-10-29T03:42:47.442Z,100983.25
2022-10-29T03:43:49.905Z,100977.69
2022-10-29T03:44:52.190Z,100974.91
2022-10-29T03:45:56.675Z,100969.63
2022-10-29T03:46:58.987Z,100974.34
2022-10-29T03:48:04.652Z,100986.56
2022-10-29T03:49:06.834Z,100981.00
2022-10-29T03:50:09.344Z,100979.31
2022-10-29T03:51:11.542Z,100981.28
2022-10-29T03:52:13.767Z,100984.88
2022-10-29T03:53:15.958Z,100984.31
2022-10-29T03:54:18.135Z,100985.41
2022-10-29T03:55:20.363Z,100981.78
2022-10-29T03:56:22.557Z,100989.88
2022-10-29T03:57:24.796Z,100976.25
2022-10-29T03:58:27.792Z,100976.25
2022-10-29T03:59:30.054Z,100972.91
2022-10-29T04:00:32.260Z,100975.97
2022-10-29T04:01:34.696Z,100978.72
2022-10-29T04:02:37.183Z,100975.09
2022-10-29T04:03:42.480Z,100978.97
2022-10-29T04:04:44.776Z,100977.31
2022-10-29T04:05:46.973Z,100983.13
2022-10-29T04:06:49.207Z,100988.66
2022-10-29T04:07:51.386Z,100983.38
2022-10-29T04:08:54.889Z,100984.25
2022-10-29T04:10:06.302Z,100988.09
2022-10-29T04:11:11.416Z,100990.31
2022-10-29T04:12:13.607Z,100991.41
2022-10-29T04:13:16.037Z,100990.56
2022-10-29T04:14:18.243Z,100991.66
2022-10-29T04:15:20.435Z,100990.84
2022-10-29T04:16:22.661Z,100989.16
2022-10-29T04:17:24.890Z,100995.53
2022-10-29T04:18:27.129Z,100996.66
2022-10-29T04:19:29.335Z,100999.66
2022-10-29T04:20:56.990Z,100996.06
2022-10-29T04:26:34.603Z,101011.31
2022-10-29T04:28:48.665Z,101009.56
2022-10-29T04:29:50.876Z,101005.97
2022-10-29T04:30:53.265Z,101003.47
2022-10-29T04:31:55.533Z,101007.34
2022-10-29T04:32:59.572Z,101010.13
2022-10-29T04:34:03.884Z,101006.75
2022-10-29T04:35:06.569Z,101006.19
2022-10-29T04:36:09.006Z,101003.41
2022-10-29T04:37:11.268Z,101012.84
2022-10-29T04:38:13.507Z,101000.91
2022-10-29T04:39:18.357Z,101007.81
2022-10-29T04:40:24.937Z,101007.81
2022-10-29T04:41:27.111Z,100999.75
2022-10-29T04:42:36.332Z,101011.69
2022-10-29T04:43:38.551Z,101010.84
2022-10-29T04:44:40.761Z,100998.91
2022-10-29T04:47:05.464Z,101001.97
2022-10-29T04:48:07.928Z,101001.13
2022-10-29T04:49:10.169Z,101004.16
2022-10-29T04:50:12.525Z,101006.91
2022-10-29T04:51:23.049Z,101001.38
2022-10-29T04:52:25.560Z,101000.81
2022-10-29T04:53:27.809Z,100997.44
2022-10-29T04:54:30.052Z,100999.41
2022-10-29T04:55:32.344Z,101003.00
2022-10-29T04:56:34.564Z,101002.16
2022-10-29T04:57:36.784Z,101003.25
2022-10-29T04:58:38.998Z,101002.44
2022-10-29T04:59:41.155Z,100996.03
2022-10-29T05:00:43.755Z,100994.34
2022-10-29T05:01:46.000Z,100997.97
2022-10-29T05:02:50.027Z,100996.31
2022-10-29T05:03:55.609Z,101000.44
2022-10-29T05:05:01.406Z,101008.75
2022-10-29T05:06:07.426Z,101011.78
2022-10-29T05:07:09.639Z,101015.38
2022-10-29T05:08:12.240Z,101016.47
2022-10-29T05:09:14.659Z,101013.16
2022-10-29T05:10:16.918Z,101015.06
2022-10-29T05:11:19.150Z,101010.66
2022-10-29T05:12:21.410Z,101008.97
2022-10-29T05:13:23.633Z,101002.56
2022-10-29T05:14:25.823Z,101000.66
2022-10-29T05:15:29.664Z,101000.06
2022-10-29T05:16:32.872Z,101009.22
2022-10-29T05:17:40.998Z,101008.63
2022-10-29T05:18:43.172Z,101012.50
2022-10-29T05:19:45.374Z,101023.59
2022-10-29T05:20:47.650Z,101028.31
2022-10-29T05:21:49.856Z,101017.50
2022-10-29T05:23:01.967Z,101026.91
2022-10-29T05:24:04.290Z,101028.84
2022-10-29T05:25:06.811Z,101035.47
2022-10-29T05:26:09.015Z,101032.72
2022-10-29T05:27:11.293Z,101039.34
2022-10-29T05:28:15.075Z,101048.47
2022-10-29T05:29:17.247Z,101039.59
2022-10-29T05:30:19.437Z,101032.13
2022-10-29T05:31:21.713Z,101041.53
2022-10-29T05:32:23.943Z,101033.22
2022-10-29T05:33:26.184Z,101039.59
2022-10-29T05:34:28.353Z,101037.94
2022-10-29T05:35:30.550Z,101022.38
2022-10-29T05:36:32.767Z,101023.47
2022-10-29T05:37:34.973Z,101023.47
2022-10-29T05:38:37.182Z,101030.69
2022-10-29T05:39:39.346Z,101024.31
2022-10-29T05:40:45.225Z,101015.16
2022-10-29T05:41:47.745Z,101026.25
2022-10-29T05:42:50.538Z,101027.38
2022-10-29T05:43:52.844Z,101034.56
2022-10-29T05:44:55.088Z,101035.69
2022-10-29T05:45:57.279Z,101044.00
2022-10-29T05:46:59.511Z,101034.81
2022-10-29T05:48:03.351Z,101035.69
2022-10-29T05:49:05.558Z,101040.38
2022-10-29T05:50:09.478Z,101040.38
2022-10-29T05:51:11.731Z,101039.53
2022-10-29T05:52:13.960Z,101046.78
2022-10-29T05:53:16.161Z,101038.69
2022-10-29T05:54:18.595Z,101035.69
2022-10-29T05:55:20.797Z,101034.81
2022-10-29T05:56:22.987Z,101040.38
2022-10-29T05:57:25.257Z,101039.53
2022-10-29T05:58:27.425Z,101035.91
2022-10-29T05:59:32.792Z,101043.41
2022-10-29T06:00:39.025Z,101037.03
2022-10-29T06:01:41.366Z,101040.63
2022-10-29T06:02:44.643Z,101043.41
2022-10-29T06:03:47.379Z,101037.03
2022-10-29T06:04:49.716Z,101035.09
2022-10-29T06:05:52.035Z,101037.03
2022-10-29T06:06:54.307Z,101036.19
2022-10-29T06:07:58.187Z,101033.41
2022-10-29T06:09:00.642Z,101036.19
2022-10-29T06:10:03.240Z,101034.25
2022-10-29T06:11:05.507Z,101037.88
2022-10-29T06:12:07.953Z,101033.41
2022-10-29T06:13:12.369Z,101034.50
2022-10-29T06:14:14.593Z,101039.22
2022-10-29T06:15:17.542Z,101039.22
2022-10-29T06:16:19.885Z,101038.94
2022-10-29T06:17:22.109Z,101040.31
2022-10-29T06:18:26.770Z,101032.25
2022-10-29T06:19:29.046Z,101040.31
2022-10-29T06:20:31.414Z,101045.84
2022-10-29T06:21:34.622Z,101040.31
2022-10-29T06:22:37.086Z,101040.31
2022-10-29T06:23:39.401Z,101043.06
2022-10-29T06:24:41.618Z,101044.16
2022-10-29T06:25:43.909Z,101046.94
2022-10-29T06:26:46.164Z,101047.78
2022-10-29T06:27:57.071Z,101043.94
2022-10-29T06:28:59.912Z,101053.06
2022-10-29T06:30:02.284Z,101052.00
2022-10-29T06:31:04.632Z,101047.53
2022-10-29T06:32:06.851Z,101058.34
2022-10-29T06:33:09.026Z,101057.28
2022-10-29T06:34:11.220Z,101063.63
2022-10-29T06:35:13.392Z,101058.09
2022-10-29T06:36:15.571Z,101058.09
2022-10-29T06:37:17.839Z,101058.69
2022-10-29T06:38:20.031Z,101056.75
2022-10-29T06:39:22.342Z,101058.16
2022-10-29T06:40:24.716Z,101059.56
2022-10-29T06:41:27.366Z,101067.66
2022-10-29T06:42:29.645Z,101064.34
2022-10-29T06:43:31.800Z,101067.97
2022-10-29T06:44:33.995Z,101067.47
2022-10-29T06:45:36.283Z,101066.09
2022-10-29T06:46:39.121Z,101066.94
2022-10-29T06:47:42.818Z,101073.91
2022-10-29T06:48:45.026Z,101070.84
2022-10-29T06:49:47.219Z,101071.44
2022-10-29T06:50:53.118Z,101065.91
2022-10-29T06:51:55.303Z,101066.22
2022-10-29T06:52:59.750Z,101060.41
2022-10-29T06:54:02.138Z,101063.19
2022-10-29T06:55:05.554Z,101066.53
2022-10-29T06:56:07.768Z,101069.06
2022-10-29T06:57:09.978Z,101058.25
2022-10-29T06:58:14.647Z,101061.03
2022-10-29T06:59:16.914Z,101057.75
2022-10-29T07:00:19.303Z,101071.34
2022-10-29T07:01:21.567Z,101060.00
2022-10-29T07:02:24.664Z,101056.13
2022-10-29T07:03:26.888Z,101058.63
2022-10-29T07:04:29.083Z,101063.09
2022-10-29T07:05:32.387Z,101054.50
2022-10-29T07:06:34.902Z,101057.88
2022-10-29T07:07:37.115Z,101058.41
2022-10-29T07:08:39.339Z,101057.91
2022-10-29T07:09:42.989Z,101067.91
2022-10-29T07:10:45.225Z,101058.47
2022-10-29T07:11:48.023Z,101064.34
2022-10-29T07:12:50.260Z,101066.84
2022-10-29T07:13:52.501Z,101063.53
2022-10-29T07:14:54.747Z,101064.13
2022-10-29T07:15:57.003Z,101069.16
2022-10-29T07:16:59.184Z,101064.78
2022-10-29T07:18:07.545Z,101065.91
2022-10-29T07:19:09.837Z,101052.09
2022-10-29T07:20:12.116Z,101061.28
2022-10-29T07:21:14.361Z,101054.94
2022-10-29T07:22:16.558Z,101062.22
2022-10-29T07:23:18.859Z,101060.34
2022-10-29T07:24:21.211Z,101054.56
2022-10-29T07:25:24.244Z,101061.25
2022-10-29T07:26:26.439Z,101058.78
2022-10-29T07:27:28.888Z,101056.06
2022-10-29T07:28:31.197Z,101059.97
2022-10-29T07:29:33.392Z,101057.78
2022-10-29T07:30:35.615Z,101062.28
2022-10-29T07:31:37.797Z,101058.69
2022-10-29T07:32:39.961Z,101064.84
2022-10-29T07:33:42.184Z,101076.84
2022-10-29T07:34:44.385Z,101062.13
2022-10-29T07:35:47.348Z,101065.78
2022-10-29T07:36:49.554Z,101058.31
2022-10-29T07:37:51.723Z,101056.38
2022-10-29T07:38:53.925Z,101059.75
2022-10-29T07:39:56.137Z,101064.50
2022-10-29T07:40:58.397Z,101060.66
2022-10-29T07:42:00.559Z,101063.19
2022-10-29T07:43:02.786Z,101068.50
2022-10-29T07:44:05.076Z,101066.59
2022-10-29T07:45:07.930Z,101067.16
2022-10-29T07:46:10.104Z,101056.91
2022-10-29T07:47:12.317Z,101061.63
2022-10-29T07:48:14.566Z,101057.75
2022-10-29T07:49:16.760Z,101059.44
2022-10-29T07:50:19.059Z,101057.22
2022-10-29T07:51:21.365Z,101064.75
2022-10-29T07:52:23.542Z,101063.38
2022-10-29T07:53:25.773Z,101061.41
2022-10-29T07:54:28.082Z,101065.88
2022-10-29T07:56:53.888Z,101062.25
2022-10-29T07:58:01.486Z,101064.25
2022-10-29T07:59:03.900Z,101066.47
2022-10-29T08:00:06.717Z,101068.44
2022-10-29T08:01:14.376Z,101080.13
2022-10-29T08:02:16.805Z,101068.44
2022-10-29T08:03:19.039Z,101078.72
2022-10-29T08:04:21.223Z,101076.22
2022-10-29T08:05:24.928Z,101077.31
2022-10-29T08:06:27.091Z,101070.34
2022-10-29T08:07:29.343Z,101065.88
2022-10-29T08:08:31.692Z,101063.66
2022-10-29T08:09:33.867Z,101067.84
2022-10-29T08:10:36.893Z,101068.94
2022-10-29T08:11:39.283Z,101072.84
2022-10-29T08:12:48.126Z,101076.72
2022-10-29T08:13:50.315Z,101078.66
2022-10-29T08:14:52.502Z,101076.16
2022-10-29T08:15:55.090Z,101076.97
2022-10-29T08:16:57.538Z,101068.88
2022-10-29T08:17:59.931Z,101066.06
2022-10-29T08:19:02.342Z,101050.16
2022-10-29T08:20:05.030Z,101056.84
2022-10-29T08:21:07.289Z,101045.97
2022-10-29T08:22:09.479Z,101047.06
2022-10-29T08:23:12.832Z,101057.38
2022-10-29T08:24:15.043Z,101048.13
2022-10-29T08:25:17.742Z,101042.81
2022-10-29T08:26:20.356Z,101041.97
2022-10-29T08:27:22.648Z,101047.53
2022-10-29T08:28:25.986Z,101042.19
2022-10-29T08:29:28.415Z,101039.09
2022-10-29T08:30:31.953Z,101031.00
2022-10-29T08:31:34.202Z,101044.09
2022-10-29T08:32:36.481Z,101043.22
2022-10-29T08:33:38.672Z,101044.34
2022-10-29T08:34:40.884Z,101034.25
2022-10-29T08:35:44.511Z,101025.00
2022-10-29T08:36:46.728Z,101026.94
2022-10-29T08:37:48.949Z,101022.72
2022-10-29T08:38:51.137Z,101020.19
2022-10-29T08:39:53.558Z,101018.47
2022-10-29T08:41:23.889Z,101024.31
2022-10-29T08:42:58.961Z,101015.91
2022-10-29T08:44:26.146Z,101017.28
2022-10-29T08:45:40.098Z,101024.50
2022-10-29T08:47:05.215Z,101023.94
2022-10-29T08:48:34.129Z,101025.00
2022-10-29T08:49:54.566Z,101019.41
2022-10-29T08:51:21.734Z,101016.84
2022-10-29T08:52:27.988Z,101015.44
2022-10-29T08:54:25.012Z,101020.75
2022-10-29T08:55:21.335Z,101021.28
2022-10-29T08:56:30.158Z,101021.28
2022-10-29T08:57:38.241Z,101020.97
2022-10-29T08:59:23.797Z,101013.97
2022-10-29T09:00:33.955Z,101016.50
2022-10-29T09:01:36.866Z,101008.94
2022-10-29T09:02:40.423Z,101016.19
2022-10-29T09:03:45.474Z,101012.28
2022-10-29T09:04:47.722Z,101020.38
2022-10-29T09:06:17.722Z,101024.84
2022-10-29T09:08:02.323Z,101022.56
2022-10-29T09:09:13.732Z,101018.94
2022-10-29T09:10:36.449Z,101019.47
2022-10-29T09:12:09.693Z,101015.25
2022-10-29T09:13:31.388Z,101014.13
2022-10-29T09:14:50.126Z,101016.63
2022-10-29T09:16:11.790Z,101009.09
2022-10-29T09:17:43.291Z,101010.72
2022-10-29T09:19:28.788Z,101006.50
2022-10-29T09:20:45.867Z,101012.94
2022-10-29T09:22:10.013Z,101003.44
2022-10-29T09:23:37.646Z,101002.28
2022-10-29T09:25:29.894Z,101005.34
2022-10-29T09:26:40.511Z,101000.28
2022-10-29T09:28:00.413Z,101002.78
2022-10-29T09:29:21.061Z,100998.56
2022-10-29T09:30:23.476Z,101003.03
2022-10-29T09:31:37.617Z,100999.13
2022-10-29T09:33:05.105Z,100998.81
2022-10-29T09:34:18.146Z,100994.88
2022-10-29T09:35:22.780Z,100998.22
2022-10-29T09:36:25.329Z,100998.75
2022-10-29T09:37:40.910Z,101010.47
2022-10-29T09:38:55.280Z,101006.53
2022-10-29T09:40:00.369Z,101010.72
2022-10-29T09:41:04.048Z,101005.94
2022-10-29T09:42:13.331Z,100997.53
2022-10-29T09:43:46.395Z,101010.94
2022-10-29T09:44:57.608Z,101006.19
2022-10-29T09:46:16.267Z,101007.84
2022-10-29T09:47:49.832Z,101009.25
2022-10-29T09:48:54.987Z,101010.63
2022-10-29T09:50:26.584Z,101010.88
2022-10-29T09:51:52.143Z,101007.16
2022-10-29T09:52:54.899Z,101005.72
2022-10-29T09:53:57.472Z,101015.19
2022-10-29T09:55:02.869Z,101019.06
2022-10-29T09:56:09.183Z,101024.06
2022-10-29T09:57:23.904Z,101014.25
2022-10-29T09:58:28.340Z,101024.50
2022-10-29T09:59:38.762Z,101014.69
2022-10-29T10:00:41.068Z,101017.72
2022-10-29T10:01:44.282Z,101014.34
2022-10-29T10:03:13.800Z,101008.13
2022-10-29T10:04:37.974Z,101012.00
2022-10-29T10:06:06.932Z,101021.13
2022-10-29T10:07:17.368Z,101012.16
2022-10-29T10:08:19.618Z,101017.16
2022-10-29T10:09:21.802Z,101016.56
2022-10-29T10:10:24.360Z,101023.22
2022-10-29T10:11:33.837Z,101011.72
2022-10-29T10:12:38.771Z,101017.22
2022-10-29T10:13:54.248Z,101009.88
2022-10-29T10:15:04.139Z,101004.25
2022-10-29T10:16:07.024Z,101005.28
2022-10-29T10:17:09.335Z,101007.19
2022-10-29T10:18:22.251Z,101001.53
2022-10-29T10:19:30.279Z,101002.25
2022-10-29T10:20:45.661Z,100999.69
2022-10-29T10:21:57.547Z,100982.25
2022-10-29T10:23:00.044Z,100991.44
2022-10-29T10:24:03.022Z,100990.81
2022-10-29T10:25:32.815Z,100987.38
2022-10-29T10:26:43.966Z,100982.00
2022-10-29T10:27:46.165Z,100982.22
2022-10-29T10:29:04.626Z,100972.38
2022-10-29T10:30:13.409Z,100982.44
2022-10-29T10:31:16.717Z,100974.53
2022-10-29T10:32:18.924Z,100974.22
2022-10-29T10:33:27.358Z,100984.31
2022-10-29T10:34:32.413Z,100975.59
2022-10-29T10:35:35.757Z,100975.31
2022-10-29T10:36:42.756Z,100979.44
2022-10-29T10:37:45.581Z,100980.28
2022-10-29T10:38:51.890Z,100970.75
2022-10-29T10:40:03.303Z,100973.22
2022-10-29T10:41:08.904Z,100965.94
2022-10-29T10:42:31.360Z,100974.03
2022-10-29T10:43:34.794Z,100963.97
2022-10-29T10:44:49.131Z,100965.63
2022-10-29T10:45:58.892Z,100968.13
2022-10-29T10:47:07.057Z,100965.63
2022-10-29T10:48:11.208Z,100966.78
2022-10-29T10:49:17.768Z,100964.28
2022-10-29T10:50:23.188Z,100962.31
2022-10-29T10:51:32.404Z,100966.56
2022-10-29T10:52:35.389Z,100970.50
2022-10-29T10:53:39.992Z,100974.44
2022-10-29T10:54:46.913Z,100967.19
2022-10-29T10:55:53.000Z,100971.97
2022-10-29T10:56:59.596Z,100967.50
2022-10-29T10:58:25.720Z,100965.31
2022-10-29T10:59:48.164Z,100971.75
2022-10-29T11:01:12.558Z,100968.94
2022-10-29T11:02:39.778Z,100961.38
2022-10-29T11:04:11.390Z,100969.25
2022-10-29T11:05:21.853Z,100968.44
2022-10-29T11:06:37.881Z,100956.38
2022-10-29T11:07:44.513Z,100960.84
2022-10-29T11:08:55.373Z,100960.84
2022-10-29T11:09:58.690Z,100962.50
2022-10-29T11:11:21.643Z,100955.78
2022-10-29T11:12:36.989Z,100960.22
2022-10-29T11:13:42.449Z,100949.00
2022-10-29T11:14:55.898Z,100942.28
2022-10-29T11:16:20.330Z,100939.16
2022-10-29T11:17:37.891Z,100948.41
2022-10-29T11:18:48.625Z,100945.59
2022-10-29T11:19:52.788Z,100936.06
2022-10-29T11:21:07.113Z,100936.06
2022-10-29T11:22:23.934Z,100936.88
2022-10-29T11:23:41.922Z,100934.59
2022-10-29T11:24:52.959Z,100930.66
2022-10-29T11:26:19.366Z,100933.13
2022-10-29T11:27:41.194Z,100925.56
2022-10-29T11:28:49.346Z,100926.06
2022-10-29T11:30:04.081Z,100923.00
2022-10-29T11:31:25.472Z,100919.03
2022-10-29T11:32:38.725Z,100924.84
2022-10-29T11:34:02.872Z,100920.91
2022-10-29T11:35:09.376Z,100920.59
2022-10-29T11:36:16.705Z,100923.41
2022-10-29T11:37:26.169Z,100911.03
2022-10-29T11:38:34.132Z,100920.03
2022-10-29T11:39:58.185Z,100914.41
2022-10-29T11:41:16.282Z,100919.38
2022-10-29T11:42:18.528Z,100916.59
2022-10-29T11:43:21.529Z,100917.41
2022-10-29T11:44:24.638Z,100912.31
2022-10-29T11:45:36.608Z,100917.63
2022-10-29T11:46:41.887Z,100900.78
2022-10-29T11:48:10.664Z,100899.66
2022-10-29T11:49:39.813Z,100903.28
2022-10-29T11:50:50.967Z,100902.97
2022-10-29T11:52:10.453Z,100896.22
2022-10-29T11:53:44.332Z,100900.38
2022-10-29T11:55:04.425Z,100898.41
2022-10-29T11:56:13.544Z,100901.72
2022-10-29T11:57:49.931Z,100888.56
2022-10-29T11:59:06.923Z,100892.69
2022-10-29T12:00:18.411Z,100887.59
2022-10-29T12:01:44.668Z,100884.78
2022-10-29T12:02:53.070Z,100880.03
2022-10-29T12:04:14.835Z,100881.38
2022-10-29T12:06:08.060Z,100884.69
2022-10-29T12:07:40.758Z,100876.78
2022-10-29T12:09:02.393Z,100875.63
2022-10-29T12:10:38.598Z,100872.53
2022-10-29T12:11:52.645Z,100877.50
2022-10-29T12:13:00.819Z,100875.50
2022-10-29T12:14:17.940Z,100868.78
2022-10-29T12:15:24.455Z,100871.56
2022-10-29T12:16:35.994Z,100873.25
2022-10-29T12:17:54.662Z,100874.06
2022-10-29T12:19:06.453Z,100878.53
2022-10-29T12:20:30.930Z,100872.91
2022-10-29T12:21:40.487Z,100872.91
2022-10-29T12:23:05.894Z,100872.09
2022-10-29T12:24:27.280Z,100873.75
2022-10-29T12:26:00.274Z,100877.38
2022-10-29T12:27:14.585Z,100879.88
2022-10-29T12:28:34.886Z,100879.88
2022-10-29T12:29:54.178Z,100867.00
2022-10-29T12:30:59.318Z,100872.59
2022-10-29T12:32:25.418Z,100866.16
2022-10-29T12:33:49.124Z,100867.31
2022-10-29T12:34:54.158Z,100863.69
2022-10-29T12:36:15.414Z,100860.34
2022-10-29T12:37:55.671Z,100854.25
2022-10-29T12:39:00.639Z,100859.84
2022-10-29T12:40:23.840Z,100851.44
2022-10-29T12:41:39.382Z,100850.91
2022-10-29T12:42:41.924Z,100854.53
2022-10-29T12:43:47.804Z,100850.91
2022-10-29T12:45:00.763Z,100843.63
2022-10-29T12:46:20.475Z,100845.63
2022-10-29T12:47:38.436Z,100845.63
2022-10-29T12:48:53.018Z,100852.38
2022-10-29T12:50:05.636Z,100844.28
2022-10-29T12:51:22.444Z,100845.09
2022-10-29T12:52:49.801Z,100836.19
2022-10-29T12:54:24.475Z,100830.03
2022-10-29T12:56:31.247Z,100835.16
2022-10-29T12:57:35.804Z,100831.81
2022-10-29T12:59:00.134Z,100834.94
2022-10-29T13:00:24.140Z,100837.75
2022-10-29T13:01:38.157Z,100829.34
2022-10-29T13:02:46.503Z,100835.28
2022-10-29T13:04:03.697Z,100833.28